createdAt,value
2017-08-03T00:02:15.138Z,21.40
2017-08-03T00:04:48.928Z,21.40
2017-08-03T00:07:23.750Z,21.40
2017-08-03T00:09:58.182Z,21.50
2017-08-03T00:12:32.621Z,21.50
2017-08-03T00:15:06.733Z,21.50
2017-08-03T00:17:40.663Z,21.50
2017-08-03T00:20:14.709Z,21.40
2017-08-03T00:22:48.521Z,21.50
2017-08-03T00:25:23.058Z,21.30
2017-08-03T00:27:56.883Z,21.30
2017-08-03T00:30:30.883Z,21.30
2017-08-03T00:33:04.786Z,21.30
2017-08-03T00:35:38.869Z,21.20
2017-08-03T00:38:13.222Z,21.20
2017-08-03T00:40:49.132Z,21.20
2017-08-03T00:43:27.129Z,21.20
2017-08-03T00:46:06.605Z,21.20
2017-08-03T00:51:29.634Z,21.10
2017-08-03T00:54:13.352Z,21.10
2017-08-03T00:56:48.204Z,21.10
2017-08-03T00:59:22.163Z,21.10
2017-08-03T01:01:58.060Z,21.10
2017-08-03T01:04:34.515Z,21.10
2017-08-03T01:07:11.956Z,21.10
2017-08-03T01:09:52.540Z,21.20
2017-08-03T01:12:28.189Z,21.10
2017-08-03T01:15:01.981Z,21.10
2017-08-03T01:17:35.820Z,21.00
2017-08-03T01:20:10.484Z,21.00
2017-08-03T01:22:45.078Z,20.60
2017-08-03T01:25:19.577Z,20.80
2017-08-03T01:27:53.384Z,20.80
2017-08-03T01:30:27.274Z,20.70
2017-08-03T01:33:01.156Z,20.50
2017-08-03T01:35:34.854Z,20.60
2017-08-03T01:38:09.398Z,20.60
2017-08-03T01:40:43.388Z,20.60
2017-08-03T01:46:28.969Z,20.30
2017-08-03T01:49:02.559Z,20.40
2017-08-03T01:51:36.512Z,20.00
2017-08-03T01:54:10.214Z,20.20
2017-08-03T01:56:44.210Z,20.30
2017-08-03T01:59:18.074Z,20.50
2017-08-03T02:01:52.111Z,20.40
2017-08-03T02:04:25.934Z,20.10
2017-08-03T02:09:59.118Z,20.40
2017-08-03T02:12:33.357Z,20.40
2017-08-03T02:15:07.269Z,20.40
2017-08-03T02:17:41.118Z,20.10
2017-08-03T02:20:15.864Z,20.10
2017-08-03T02:22:49.725Z,20.10
2017-08-03T02:25:24.349Z,20.30
2017-08-03T02:27:58.292Z,20.30
2017-08-03T02:30:32.013Z,20.10
2017-08-03T02:33:06.042Z,20.10
2017-08-03T02:35:39.877Z,20.10
2017-08-03T02:38:14.473Z,20.30
2017-08-03T02:40:48.504Z,20.20
2017-08-03T02:43:22.611Z,20.20
2017-08-03T02:45:56.570Z,20.10
2017-08-03T02:48:31.129Z,20.20
2017-08-03T02:51:04.866Z,20.20
2017-08-03T02:53:39.486Z,20.20
2017-08-03T02:56:14.141Z,20.20
2017-08-03T02:58:47.965Z,20.20
2017-08-03T03:01:21.845Z,20.20
2017-08-03T03:03:55.649Z,20.10
2017-08-03T03:06:29.637Z,20.10
2017-08-03T03:09:03.510Z,20.00
2017-08-03T03:11:39.018Z,20.00
2017-08-03T03:14:12.760Z,20.10
2017-08-03T03:16:47.629Z,20.10
2017-08-03T03:19:21.365Z,20.10
2017-08-03T03:21:55.295Z,20.10
2017-08-03T03:24:29.068Z,20.10
2017-08-03T03:27:03.732Z,20.10
2017-08-03T03:29:37.668Z,20.00
2017-08-03T03:32:11.652Z,20.00
2017-08-03T03:34:45.494Z,20.10
2017-08-03T03:37:20.010Z,20.00
2017-08-03T03:39:53.917Z,20.00
2017-08-03T03:42:28.862Z,20.00
2017-08-03T03:45:02.657Z,20.00
2017-08-03T03:47:36.442Z,20.00
2017-08-03T03:50:10.243Z,20.00
2017-08-03T03:52:44.933Z,20.00
2017-08-03T03:55:18.645Z,20.00
2017-08-03T03:57:52.546Z,19.70
2017-08-03T04:00:26.647Z,19.70
2017-08-03T04:03:00.559Z,19.60
2017-08-03T04:05:34.358Z,19.70
2017-08-03T04:08:08.278Z,19.80
2017-08-03T04:10:42.748Z,19.80
2017-08-03T04:13:16.685Z,19.70
2017-08-03T04:15:50.530Z,19.80
2017-08-03T04:18:24.424Z,19.80
2017-08-03T04:20:58.525Z,19.80
2017-08-03T04:23:32.508Z,19.80
2017-08-03T04:26:07.134Z,19.80
2017-08-03T04:28:40.932Z,19.80
2017-08-03T04:31:15.483Z,19.90
2017-08-03T04:33:49.393Z,19.90
2017-08-03T04:36:23.398Z,19.80
2017-08-03T04:38:57.247Z,19.80
2017-08-03T04:41:31.170Z,19.90
2017-08-03T04:44:05.138Z,19.90
2017-08-03T04:46:38.936Z,19.90
2017-08-03T04:49:12.889Z,20.00
2017-08-03T04:51:46.682Z,20.00
2017-08-03T04:54:20.829Z,20.10
2017-08-03T04:56:54.989Z,20.10
2017-08-03T04:59:31.790Z,20.10
2017-08-03T05:02:05.958Z,20.10
2017-08-03T05:04:40.697Z,20.20
2017-08-03T05:07:14.369Z,20.10
2017-08-03T05:09:48.205Z,20.20
2017-08-03T05:12:21.978Z,20.20
2017-08-03T05:14:59.023Z,20.20
2017-08-03T05:17:35.017Z,20.30
2017-08-03T05:20:10.966Z,20.20
2017-08-03T05:22:46.453Z,20.30
2017-08-03T05:25:20.485Z,20.30
2017-08-03T05:27:55.102Z,20.40
2017-08-03T05:30:28.901Z,20.40
2017-08-03T05:33:02.825Z,20.40
2017-08-03T05:35:36.804Z,20.40
2017-08-03T05:38:11.315Z,20.50
2017-08-03T05:40:45.729Z,20.50
2017-08-03T05:43:20.033Z,20.60
2017-08-03T05:45:53.980Z,20.60
2017-08-03T05:48:28.822Z,20.80
2017-08-03T05:51:02.834Z,20.80
2017-08-03T05:53:37.907Z,20.90
2017-08-03T05:56:15.340Z,21.00
2017-08-03T05:58:50.088Z,21.10
2017-08-03T06:01:24.046Z,21.20
2017-08-03T06:04:00.495Z,21.30
2017-08-03T06:06:35.219Z,21.70
2017-08-03T06:09:09.934Z,21.70
2017-08-03T06:11:44.615Z,21.70
2017-08-03T06:14:18.389Z,21.80
2017-08-03T06:16:52.307Z,21.80
2017-08-03T06:19:28.027Z,21.70
2017-08-03T06:22:03.523Z,21.80
2017-08-03T06:24:38.247Z,21.80
2017-08-03T06:27:15.480Z,21.80
2017-08-03T06:29:50.451Z,21.80
2017-08-03T06:32:25.423Z,21.80
2017-08-03T06:34:59.488Z,21.90
2017-08-03T06:37:33.526Z,22.00
2017-08-03T06:40:08.096Z,22.00
2017-08-03T06:42:43.050Z,22.10
2017-08-03T06:45:16.931Z,22.20
2017-08-03T06:47:53.986Z,22.40
2017-08-03T06:50:29.949Z,22.40
2017-08-03T06:53:05.414Z,22.60
2017-08-03T06:55:43.890Z,22.80
2017-08-03T06:58:18.595Z,22.80
2017-08-03T07:00:52.539Z,22.90
2017-08-03T07:03:26.334Z,23.00
2017-08-03T07:06:01.270Z,23.10
2017-08-03T07:08:37.954Z,23.20
2017-08-03T07:11:12.549Z,23.20
2017-08-03T07:13:47.798Z,23.20
2017-08-03T07:16:21.842Z,23.40
2017-08-03T07:18:55.863Z,23.50
2017-08-03T07:21:30.561Z,23.60
2017-08-03T07:24:04.617Z,23.80
2017-08-03T07:26:40.141Z,24.00
2017-08-03T07:29:14.062Z,24.00
2017-08-03T07:31:48.007Z,24.10
2017-08-03T07:34:23.143Z,24.50
2017-08-03T07:36:57.828Z,24.40
2017-08-03T07:39:32.380Z,24.90
2017-08-03T07:42:07.105Z,24.80
2017-08-03T07:44:45.471Z,25.10
2017-08-03T07:47:21.556Z,25.10
2017-08-03T07:49:57.799Z,25.30
2017-08-03T07:52:32.464Z,25.60
2017-08-03T07:55:06.365Z,25.80
2017-08-03T07:57:42.168Z,25.80
2017-08-03T08:00:16.199Z,25.80
2017-08-03T08:02:50.212Z,25.80
2017-08-03T08:05:25.599Z,25.80
2017-08-03T08:07:59.332Z,25.80
2017-08-03T08:10:33.893Z,26.10
2017-08-03T08:13:07.827Z,26.10
2017-08-03T08:15:42.241Z,26.40
2017-08-03T08:18:16.839Z,26.50
2017-08-03T08:20:50.861Z,26.50
2017-08-03T08:23:26.210Z,26.70
2017-08-03T08:26:00.067Z,26.90
2017-08-03T08:28:35.149Z,26.90
2017-08-03T08:31:09.234Z,27.00
2017-08-03T08:33:43.208Z,27.20
2017-08-03T08:36:17.300Z,27.50
2017-08-03T08:38:51.209Z,27.50
2017-08-03T08:41:25.945Z,27.60
2017-08-03T08:44:00.909Z,27.60
2017-08-03T08:46:35.704Z,28.00
2017-08-03T08:49:11.661Z,28.00
2017-08-03T08:51:47.655Z,28.10
2017-08-03T08:54:21.667Z,28.40
2017-08-03T08:56:55.587Z,28.10
2017-08-03T08:59:29.429Z,28.10
2017-08-03T09:02:13.786Z,27.90
2017-08-03T09:04:47.596Z,28.30
2017-08-03T09:07:21.295Z,28.40
2017-08-03T09:09:55.174Z,28.50
2017-08-03T09:12:28.773Z,28.50
2017-08-03T09:15:02.578Z,28.50
2017-08-03T09:17:36.202Z,28.40
2017-08-03T09:20:09.878Z,28.50
2017-08-03T09:22:44.435Z,28.40
2017-08-03T09:25:18.235Z,28.40
2017-08-03T09:27:51.979Z,28.70
2017-08-03T09:30:26.565Z,28.70
2017-08-03T09:33:00.378Z,28.70
2017-08-03T09:35:34.088Z,28.70
2017-08-03T09:38:07.856Z,28.70
2017-08-03T09:40:42.578Z,28.60
2017-08-03T09:43:16.240Z,28.70
2017-08-03T09:45:49.946Z,28.70
2017-08-03T09:48:23.665Z,28.80
2017-08-03T09:50:57.326Z,28.90
2017-08-03T09:53:31.810Z,28.90
2017-08-03T09:56:05.414Z,28.90
2017-08-03T09:58:38.994Z,28.90
2017-08-03T10:01:12.600Z,28.90
2017-08-03T10:03:46.276Z,28.90
2017-08-03T10:06:20.605Z,29.30
2017-08-03T10:08:54.937Z,29.20
2017-08-03T10:11:29.246Z,29.40
2017-08-03T10:14:03.763Z,29.40
2017-08-03T10:16:37.540Z,29.30
2017-08-03T10:19:12.011Z,29.20
2017-08-03T10:21:46.434Z,29.20
2017-08-03T10:24:20.035Z,29.20
2017-08-03T10:26:53.585Z,29.30
2017-08-03T10:29:27.312Z,29.20
2017-08-03T10:32:00.840Z,29.10
2017-08-03T10:34:35.120Z,29.20
2017-08-03T10:37:08.727Z,29.10
2017-08-03T10:39:42.373Z,29.00
2017-08-03T10:42:15.956Z,28.80
2017-08-03T10:44:49.509Z,28.60
2017-08-03T10:47:23.340Z,28.50
2017-08-03T10:49:56.960Z,28.50
2017-08-03T10:52:30.527Z,28.40
2017-08-03T10:55:04.270Z,28.30
2017-08-03T10:57:38.032Z,28.30
2017-08-03T11:00:11.582Z,28.40
2017-08-03T11:02:45.251Z,28.30
2017-08-03T11:05:18.849Z,28.30
2017-08-03T11:07:52.651Z,28.10
2017-08-03T11:10:27.123Z,28.30
2017-08-03T11:13:00.710Z,28.30
2017-08-03T11:15:34.297Z,28.50
2017-08-03T11:18:07.865Z,28.60
2017-08-03T11:20:41.473Z,28.60
2017-08-03T11:23:14.972Z,28.40
2017-08-03T11:25:48.574Z,28.30
2017-08-03T11:28:22.195Z,28.40
2017-08-03T11:30:55.770Z,28.40
2017-08-03T11:33:29.712Z,28.40
2017-08-03T11:36:04.198Z,28.70
2017-08-03T11:38:37.747Z,28.60
2017-08-03T11:41:11.342Z,28.90
2017-08-03T11:43:44.936Z,28.80
2017-08-03T11:46:18.600Z,28.80
2017-08-03T11:48:52.438Z,28.70
2017-08-03T11:51:26.233Z,28.60
2017-08-03T11:54:00.536Z,28.50
2017-08-03T11:56:34.358Z,28.70
2017-08-03T11:59:09.023Z,28.90
2017-08-03T12:01:42.837Z,28.90
2017-08-03T12:04:16.525Z,29.00
2017-08-03T12:06:50.242Z,28.90
2017-08-03T12:09:24.955Z,29.00
2017-08-03T12:11:58.587Z,29.20
2017-08-03T12:14:32.233Z,29.10
2017-08-03T12:17:06.425Z,29.10
2017-08-03T12:19:40.108Z,29.20
2017-08-03T12:22:13.965Z,29.00
2017-08-03T12:24:47.767Z,29.20
2017-08-03T12:27:22.262Z,29.40
2017-08-03T12:29:55.884Z,29.40
2017-08-03T12:32:29.549Z,29.60
2017-08-03T12:35:04.238Z,29.20
2017-08-03T12:37:39.288Z,29.20
2017-08-03T12:40:13.115Z,29.40
2017-08-03T12:42:46.919Z,29.50
2017-08-03T12:45:21.475Z,29.90
2017-08-03T12:47:55.406Z,29.90
2017-08-03T12:50:29.883Z,30.30
2017-08-03T12:53:03.565Z,30.30
2017-08-03T12:55:37.948Z,30.40
2017-08-03T12:58:11.811Z,30.40
2017-08-03T13:00:46.170Z,29.80
2017-08-03T13:03:20.814Z,30.00
2017-08-03T13:05:54.538Z,29.90
2017-08-03T13:08:28.871Z,30.20
2017-08-03T13:11:03.414Z,30.20
2017-08-03T13:13:37.143Z,30.10
2017-08-03T13:16:10.948Z,30.40
2017-08-03T13:18:44.803Z,30.30
2017-08-03T13:21:18.485Z,30.20
2017-08-03T13:23:52.851Z,30.30
2017-08-03T13:26:26.597Z,30.30
2017-08-03T13:29:00.420Z,30.30
2017-08-03T13:31:34.346Z,30.10
2017-08-03T13:34:08.228Z,30.30
2017-08-03T13:36:42.783Z,30.20
2017-08-03T13:39:16.583Z,30.20
2017-08-03T13:41:50.887Z,30.30
2017-08-03T13:44:24.529Z,30.40
2017-08-03T13:46:58.316Z,30.70
2017-08-03T13:49:31.922Z,30.90
2017-08-03T13:52:05.673Z,30.80
2017-08-03T13:54:39.357Z,30.30
2017-08-03T13:57:12.983Z,30.30
2017-08-03T13:59:46.794Z,30.40
2017-08-03T14:02:20.515Z,30.40
2017-08-03T14:04:54.362Z,30.50
2017-08-03T14:07:28.026Z,30.70
2017-08-03T14:10:01.829Z,30.70
2017-08-03T14:12:35.494Z,30.80
2017-08-03T14:15:09.272Z,30.70
2017-08-03T14:17:43.096Z,30.70
2017-08-03T14:20:16.860Z,30.50
2017-08-03T14:22:50.452Z,30.30
2017-08-03T14:25:24.672Z,30.50
2017-08-03T14:27:58.887Z,30.60
2017-08-03T14:30:32.677Z,30.60
2017-08-03T14:33:06.388Z,30.50
2017-08-03T14:35:41.039Z,30.70
2017-08-03T14:38:14.768Z,30.60
2017-08-03T14:40:48.510Z,30.90
2017-08-03T14:43:22.258Z,30.90
2017-08-03T14:45:56.035Z,30.80
2017-08-03T14:48:29.872Z,30.50
2017-08-03T14:51:04.475Z,30.40
2017-08-03T14:53:38.978Z,30.40
2017-08-03T14:56:12.641Z,30.40
2017-08-03T14:58:46.307Z,30.40
2017-08-03T15:01:19.976Z,30.50
2017-08-03T15:03:53.582Z,30.70
2017-08-03T15:06:27.393Z,30.90
2017-08-03T15:09:01.210Z,30.60
2017-08-03T15:11:34.975Z,30.70
2017-08-03T15:14:08.748Z,30.80
2017-08-03T15:16:42.537Z,30.80
2017-08-03T15:19:17.165Z,30.70
2017-08-03T15:21:50.947Z,30.70
2017-08-03T15:24:24.691Z,30.50
2017-08-03T15:26:58.855Z,30.70
2017-08-03T15:29:32.448Z,30.70
2017-08-03T15:32:06.209Z,30.70
2017-08-03T15:34:39.819Z,30.80
2017-08-03T15:37:13.646Z,30.80
2017-08-03T15:39:48.213Z,30.80
2017-08-03T15:42:21.988Z,30.80
2017-08-03T15:44:55.756Z,30.80
2017-08-03T15:47:29.630Z,30.70
2017-08-03T15:50:03.408Z,30.70
2017-08-03T15:52:37.616Z,30.80
2017-08-03T15:55:12.219Z,30.70
2017-08-03T15:57:46.076Z,30.50
2017-08-03T16:00:20.014Z,30.60
2017-08-03T16:02:55.330Z,30.80
2017-08-03T16:05:38.142Z,30.80
2017-08-03T16:08:18.365Z,30.90
2017-08-03T16:10:52.215Z,30.80
2017-08-03T16:13:25.971Z,30.70
2017-08-03T16:16:00.099Z,30.80
2017-08-03T16:18:34.781Z,30.80
2017-08-03T16:21:09.142Z,30.70
2017-08-03T16:23:43.943Z,30.60
2017-08-03T16:26:17.962Z,30.60
2017-08-03T16:28:51.931Z,30.50
2017-08-03T16:31:26.957Z,30.20
2017-08-03T16:34:00.778Z,30.10
2017-08-03T16:36:35.510Z,30.10
2017-08-03T16:39:09.238Z,30.10
2017-08-03T16:41:44.317Z,30.20
2017-08-03T16:44:18.259Z,30.20
2017-08-03T16:46:52.350Z,30.20
2017-08-03T16:49:26.314Z,30.60
2017-08-03T16:52:00.296Z,30.80
2017-08-03T16:54:34.345Z,30.70
2017-08-03T16:57:08.302Z,30.90
2017-08-03T16:59:42.009Z,31.00
2017-08-03T17:02:15.985Z,31.00
2017-08-03T17:04:57.813Z,31.20
2017-08-03T17:07:31.729Z,31.20
2017-08-03T17:10:05.587Z,31.20
2017-08-03T17:12:39.280Z,31.00
2017-08-03T17:15:13.187Z,30.90
2017-08-03T17:17:47.170Z,30.80
2017-08-03T17:20:21.131Z,30.80
2017-08-03T17:25:52.338Z,30.40
2017-08-03T17:28:26.093Z,30.20
2017-08-03T17:30:59.828Z,30.10
2017-08-03T17:33:33.875Z,29.90
2017-08-03T17:36:16.337Z,29.30
2017-08-03T17:38:50.192Z,29.30
2017-08-03T17:41:24.028Z,29.40
2017-08-03T17:43:58.747Z,29.20
2017-08-03T17:46:33.246Z,29.20
2017-08-03T17:51:53.542Z,29.30
2017-08-03T17:54:30.597Z,29.10
2017-08-03T17:57:07.988Z,29.00
2017-08-03T17:59:43.707Z,29.00
2017-08-03T18:02:17.689Z,29.10
2017-08-03T18:04:52.257Z,29.00
2017-08-03T18:07:26.325Z,29.00
2017-08-03T18:10:02.057Z,28.80
2017-08-03T18:12:36.216Z,28.60
2017-08-03T18:15:10.189Z,28.30
2017-08-03T18:17:43.928Z,28.00
2017-08-03T18:20:17.883Z,27.80
2017-08-03T18:22:52.646Z,28.00
2017-08-03T18:25:27.359Z,28.10
2017-08-03T18:28:01.416Z,28.10
2017-08-03T18:30:35.476Z,28.10
2017-08-03T18:33:10.312Z,28.00
2017-08-03T18:35:44.755Z,27.70
2017-08-03T18:38:18.690Z,27.70
2017-08-03T18:40:52.712Z,27.60
2017-08-03T18:43:27.567Z,27.30
2017-08-03T18:46:02.480Z,27.30
2017-08-03T18:48:36.395Z,26.90
2017-08-03T18:51:11.414Z,26.90
2017-08-03T18:53:46.656Z,27.00
2017-08-03T18:56:20.578Z,26.90
2017-08-03T18:58:54.594Z,27.10
2017-08-03T19:01:30.175Z,27.00
2017-08-03T19:04:09.309Z,26.90
2017-08-03T19:06:43.224Z,26.90
2017-08-03T19:09:17.310Z,26.90
2017-08-03T19:11:51.337Z,26.60
2017-08-03T19:14:25.199Z,26.70
2017-08-03T19:17:02.778Z,26.60
2017-08-03T19:22:36.557Z,26.60
2017-08-03T19:25:14.682Z,26.60
2017-08-03T19:27:48.627Z,26.60
2017-08-03T19:30:26.367Z,26.60
2017-08-03T19:33:02.517Z,26.50
2017-08-03T19:35:36.612Z,26.50
2017-08-03T19:38:12.105Z,26.30
2017-08-03T19:40:49.883Z,26.30
2017-08-03T19:43:27.385Z,26.10
2017-08-03T19:46:01.384Z,26.20
2017-08-03T19:48:35.306Z,26.30
2017-08-03T19:51:10.312Z,26.10
2017-08-03T19:56:41.027Z,25.70
2017-08-03T19:59:15.982Z,25.80
2017-08-03T20:01:52.019Z,25.40
2017-08-03T20:04:26.617Z,25.60
2017-08-03T20:07:05.480Z,25.70
2017-08-03T20:09:51.158Z,25.30
2017-08-03T20:12:25.553Z,25.50
2017-08-03T20:15:04.004Z,25.60
2017-08-03T20:17:45.136Z,25.70
2017-08-03T20:20:19.103Z,25.60
2017-08-03T20:22:53.121Z,25.50
2017-08-03T20:25:29.106Z,25.50
2017-08-03T20:28:13.410Z,25.40
2017-08-03T20:30:55.482Z,25.40
2017-08-03T20:36:13.271Z,25.50
2017-08-03T20:38:47.233Z,25.50
2017-08-03T20:41:22.068Z,25.50
2017-08-03T20:43:56.128Z,25.50
2017-08-03T20:46:30.886Z,25.30
2017-08-03T20:49:04.895Z,25.30
2017-08-03T20:51:38.939Z,25.50
2017-08-03T20:54:12.980Z,25.50
2017-08-03T20:56:47.030Z,25.40
2017-08-03T20:59:20.904Z,25.40
2017-08-03T21:01:54.675Z,25.30
2017-08-03T21:04:29.157Z,25.00
2017-08-03T21:07:02.796Z,25.00
2017-08-03T21:09:37.438Z,25.00
2017-08-03T21:12:12.385Z,25.10
2017-08-03T21:14:46.167Z,25.10
2017-08-03T21:17:19.952Z,25.10
2017-08-03T21:19:53.929Z,25.10
2017-08-03T21:22:49.707Z,25.00
2017-08-03T21:25:24.605Z,24.80
2017-08-03T21:27:58.893Z,24.50
2017-08-03T21:30:32.805Z,24.60
2017-08-03T21:33:07.969Z,24.80
2017-08-03T21:35:42.471Z,24.90
2017-08-03T21:38:16.259Z,24.80
2017-08-03T21:40:50.633Z,24.80
2017-08-03T21:43:25.404Z,24.90
2017-08-03T21:45:59.082Z,24.90
2017-08-03T21:48:33.899Z,24.90
2017-08-03T21:51:08.507Z,24.80
2017-08-03T21:53:43.271Z,24.80
2017-08-03T21:56:17.340Z,24.70
2017-08-03T21:58:51.952Z,24.70
2017-08-03T22:01:25.986Z,24.70
2017-08-03T22:04:00.587Z,24.70
2017-08-03T22:06:35.835Z,24.40
2017-08-03T22:09:09.954Z,24.40
2017-08-03T22:11:44.401Z,24.50
2017-08-03T22:14:18.397Z,24.60
2017-08-03T22:16:53.034Z,24.60
2017-08-03T22:19:27.914Z,24.60
2017-08-03T22:22:02.809Z,24.70
2017-08-03T22:24:36.834Z,24.60
2017-08-03T22:27:10.679Z,24.50
2017-08-03T22:29:44.550Z,24.30
2017-08-03T22:32:18.315Z,24.30
2017-08-03T22:34:52.321Z,24.40
2017-08-03T22:37:26.306Z,24.40
2017-08-03T22:40:00.437Z,24.20
2017-08-03T22:42:35.837Z,24.20
2017-08-03T22:45:12.685Z,24.20
2017-08-03T22:47:46.700Z,24.10
2017-08-03T22:50:20.562Z,24.10
2017-08-03T22:52:54.551Z,24.20
2017-08-03T22:55:28.308Z,24.30
2017-08-03T22:58:03.581Z,24.20
2017-08-03T23:00:37.632Z,24.20
2017-08-03T23:03:12.039Z,24.20
2017-08-03T23:05:46.945Z,24.20
2017-08-03T23:08:21.593Z,24.20
2017-08-03T23:10:56.288Z,24.10
2017-08-03T23:13:30.382Z,23.90
2017-08-03T23:16:04.518Z,23.80
2017-08-03T23:18:38.622Z,23.90
2017-08-03T23:21:13.248Z,24.00
2017-08-03T23:23:47.194Z,24.00
2017-08-03T23:26:21.393Z,24.00
2017-08-03T23:28:55.202Z,24.00
2017-08-03T23:31:29.414Z,24.00
2017-08-03T23:34:03.384Z,24.00
2017-08-03T23:36:37.399Z,23.80
2017-08-03T23:39:12.016Z,23.80
2017-08-03T23:41:49.066Z,23.80
2017-08-03T23:44:23.090Z,23.80
2017-08-03T23:46:56.920Z,23.80
2017-08-03T23:49:32.432Z,23.80
2017-08-03T23:52:06.277Z,23.70
2017-08-03T23:54:40.205Z,23.60
2017-08-03T23:57:14.864Z,23.70
2017-08-03T23:59:48.862Z,23.70
